createdAt,value
2023-05-19T00:00:41.809Z,9.41
2023-05-19T00:03:24.617Z,9.50
2023-05-19T00:06:01.899Z,9.22
2023-05-19T00:08:34.876Z,9.33
2023-05-19T00:11:07.972Z,9.37
2023-05-19T00:13:40.849Z,9.25
2023-05-19T00:16:15.056Z,9.26
2023-05-19T00:18:47.951Z,9.31
2023-05-19T00:21:47.722Z,9.25
2023-05-19T00:24:59.471Z,9.20
2023-05-19T00:27:31.494Z,9.11
2023-05-19T00:30:04.667Z,9.01
2023-05-19T00:32:36.697Z,9.02
2023-05-19T00:35:13.005Z,9.09
2023-05-19T00:37:47.521Z,8.98
2023-05-19T00:40:21.013Z,9.00
2023-05-19T00:42:53.196Z,9.01
2023-05-19T00:45:25.837Z,8.99
2023-05-19T00:47:57.735Z,8.99
2023-05-19T00:50:31.552Z,8.92
2023-05-19T00:53:06.410Z,8.77
2023-05-19T00:55:42.091Z,8.81
2023-05-19T00:58:15.131Z,8.68
2023-05-19T01:00:50.232Z,8.70
2023-05-19T01:03:22.171Z,8.80
2023-05-19T01:05:55.195Z,8.81
2023-05-19T01:08:32.094Z,8.83
2023-05-19T01:11:04.920Z,8.74
2023-05-19T01:13:39.716Z,8.62
2023-05-19T01:16:17.346Z,8.61
2023-05-19T01:18:56.895Z,8.61
2023-05-19T01:21:58.818Z,8.51
2023-05-19T01:24:59.877Z,8.59
2023-05-19T01:30:42.415Z,8.42
2023-05-19T01:33:17.430Z,8.44
2023-05-19T01:35:50.779Z,8.28
2023-05-19T01:38:24.431Z,8.15
2023-05-19T01:41:01.726Z,8.23
2023-05-19T01:43:34.649Z,8.06
2023-05-19T01:46:10.794Z,8.06
2023-05-19T01:48:43.574Z,8.06
2023-05-19T01:51:17.893Z,8.03
2023-05-19T01:53:50.425Z,8.01
2023-05-19T01:56:30.415Z,8.01
2023-05-19T01:59:14.618Z,7.79
2023-05-19T02:01:55.146Z,7.90
2023-05-19T02:04:40.571Z,7.91
2023-05-19T02:07:20.612Z,7.93
2023-05-19T02:10:03.298Z,7.70
2023-05-19T02:12:38.400Z,7.60
2023-05-19T02:15:14.739Z,7.62
2023-05-19T02:17:52.258Z,7.65
2023-05-19T02:20:25.481Z,7.65
2023-05-19T02:22:57.765Z,7.62
2023-05-19T02:25:31.038Z,7.60
2023-05-19T02:28:03.392Z,7.40
2023-05-19T02:30:36.315Z,7.50
2023-05-19T02:33:11.852Z,7.66
2023-05-19T02:35:44.796Z,7.72
2023-05-19T02:38:17.402Z,7.71
2023-05-19T02:40:50.712Z,7.67
2023-05-19T02:43:23.194Z,7.80
2023-05-19T02:46:03.430Z,7.69
2023-05-19T02:48:38.452Z,7.75
2023-05-19T02:51:11.158Z,7.94
2023-05-19T02:53:43.055Z,8.07
2023-05-19T02:56:18.140Z,8.04
2023-05-19T02:58:50.215Z,8.11
2023-05-19T03:01:40.862Z,8.08
2023-05-19T03:04:15.436Z,8.08
2023-05-19T03:06:47.918Z,8.08
2023-05-19T03:09:19.957Z,8.12
2023-05-19T03:11:52.457Z,8.10
2023-05-19T03:14:25.309Z,7.84
2023-05-19T03:16:57.882Z,7.90
2023-05-19T03:19:35.653Z,7.90
2023-05-19T03:22:10.955Z,8.02
2023-05-19T03:24:42.845Z,8.01
2023-05-19T03:27:16.976Z,8.05
2023-05-19T03:29:48.776Z,7.86
2023-05-19T03:32:21.470Z,8.02
2023-05-19T03:34:56.582Z,8.11
2023-05-19T03:37:28.941Z,8.08
2023-05-19T03:40:00.924Z,8.12
2023-05-19T03:42:40.898Z,7.91
2023-05-19T03:45:13.609Z,7.90
2023-05-19T03:47:47.037Z,7.82
2023-05-19T03:50:21.819Z,8.10
2023-05-19T03:52:54.177Z,8.12
2023-05-19T03:55:26.946Z,8.08
2023-05-19T03:57:59.909Z,8.30
2023-05-19T04:00:31.935Z,8.28
2023-05-19T04:03:04.572Z,8.22
2023-05-19T04:05:39.425Z,8.43
2023-05-19T04:08:12.020Z,8.43
2023-05-19T04:10:43.876Z,8.62
2023-05-19T04:13:16.375Z,8.69
2023-05-19T04:15:48.270Z,8.56
2023-05-19T04:18:22.216Z,8.61
2023-05-19T04:20:56.805Z,8.78
2023-05-19T04:23:29.245Z,8.91
2023-05-19T04:26:02.470Z,9.01
2023-05-19T04:28:37.194Z,9.03
2023-05-19T04:31:11.287Z,9.16
2023-05-19T04:33:44.414Z,9.36
2023-05-19T04:36:21.908Z,9.44
2023-05-19T04:39:05.068Z,9.76
2023-05-19T04:41:40.674Z,9.83
2023-05-19T04:44:13.901Z,9.96
2023-05-19T04:46:45.763Z,10.12
2023-05-19T04:49:19.679Z,10.08
2023-05-19T04:51:55.925Z,10.25
2023-05-19T04:54:29.257Z,10.34
2023-05-19T04:57:01.374Z,10.68
2023-05-19T04:59:34.220Z,10.66
2023-05-19T05:02:06.718Z,10.74
2023-05-19T05:04:43.037Z,10.92
2023-05-19T05:07:18.033Z,11.01
2023-05-19T05:09:58.148Z,11.08
2023-05-19T05:12:31.373Z,11.22
2023-05-19T05:15:13.335Z,11.13
2023-05-19T05:17:45.877Z,11.13
2023-05-19T05:20:21.060Z,11.37
2023-05-19T05:22:56.209Z,11.78
2023-05-19T05:25:29.349Z,12.55
2023-05-19T05:28:05.508Z,12.56
2023-05-19T05:30:49.641Z,12.99
2023-05-19T05:33:25.276Z,13.34
2023-05-19T05:36:17.314Z,13.23
2023-05-19T05:39:18.644Z,12.97
2023-05-19T05:41:58.003Z,13.10
2023-05-19T05:44:54.030Z,13.76
2023-05-19T05:47:34.772Z,13.72
2023-05-19T05:50:23.603Z,13.98
2023-05-19T05:53:23.323Z,13.74
2023-05-19T05:59:45.469Z,14.39
2023-05-19T06:03:02.817Z,14.57
2023-05-19T06:05:41.340Z,14.80
2023-05-19T06:08:43.300Z,15.13
2023-05-19T06:15:14.759Z,15.39
2023-05-19T06:16:02.742Z,15.11
2023-05-19T06:19:16.416Z,15.80
2023-05-19T06:22:40.235Z,15.82
2023-05-19T06:25:45.579Z,16.31
2023-05-19T06:28:23.554Z,16.26
2023-05-19T06:31:07.967Z,16.14
2023-05-19T06:33:44.075Z,16.55
2023-05-19T06:36:51.241Z,16.14
2023-05-19T06:39:39.596Z,16.31
2023-05-19T06:45:08.925Z,15.96
2023-05-19T06:45:52.097Z,16.02
2023-05-19T06:48:29.059Z,16.29
2023-05-19T06:51:05.335Z,16.55
2023-05-19T06:53:41.297Z,16.87
2023-05-19T06:59:27.578Z,17.78
2023-05-19T07:02:03.685Z,18.30
2023-05-19T07:04:23.242Z,18.60
2023-05-19T07:11:58.403Z,18.92
2023-05-19T07:15:02.881Z,18.24
2023-05-19T07:17:43.198Z,18.40
2023-05-19T07:20:16.278Z,17.85
2023-05-19T07:22:51.734Z,18.38
2023-05-19T07:25:23.767Z,19.47
2023-05-19T07:27:56.751Z,20.83
2023-05-19T07:30:30.343Z,21.62
2023-05-19T07:33:08.390Z,22.19
2023-05-19T07:35:42.447Z,21.07
2023-05-19T07:38:24.977Z,20.30
2023-05-19T07:41:04.418Z,21.06
2023-05-19T07:43:37.605Z,20.99
2023-05-19T07:46:13.467Z,21.13
2023-05-19T07:48:48.448Z,20.74
2023-05-19T07:51:20.607Z,20.57
2023-05-19T07:53:59.666Z,20.67
2023-05-19T07:56:34.675Z,21.56
2023-05-19T07:59:08.538Z,21.65
2023-05-19T08:01:40.502Z,21.04
2023-05-19T08:04:16.521Z,21.43
2023-05-19T08:06:48.765Z,22.24
2023-05-19T08:09:26.544Z,22.76
2023-05-19T08:12:02.043Z,22.77
2023-05-19T08:14:35.383Z,23.29
2023-05-19T08:17:07.654Z,23.19
2023-05-19T08:22:50.249Z,22.02
2023-05-19T08:25:43.495Z,22.98
2023-05-19T08:28:16.472Z,23.33
2023-05-19T08:30:49.392Z,22.54
2023-05-19T08:33:22.009Z,22.85
2023-05-19T08:35:55.833Z,23.30
2023-05-19T08:38:27.709Z,23.40
2023-05-19T08:41:03.951Z,23.42
2023-05-19T08:43:37.395Z,23.18
2023-05-19T08:46:17.339Z,22.86
2023-05-19T08:48:53.790Z,23.39
2023-05-19T08:51:37.593Z,23.59
2023-05-19T08:54:19.122Z,22.96
2023-05-19T08:56:58.537Z,21.90
2023-05-19T09:28:36.839Z,21.94
2023-05-19T09:31:12.479Z,22.36
2023-05-19T09:33:49.788Z,22.48
2023-05-19T09:36:28.049Z,22.29
2023-05-19T09:39:00.441Z,21.97
2023-05-19T09:41:33.528Z,22.72
2023-05-19T09:44:08.721Z,23.11
2023-05-19T09:46:41.714Z,22.57
2023-05-19T09:49:18.909Z,21.64
2023-05-19T09:51:58.989Z,21.24
2023-05-19T09:54:32.703Z,21.25
2023-05-19T09:57:08.781Z,21.54
2023-05-19T09:59:46.043Z,21.83
2023-05-19T10:05:21.988Z,21.88
2023-05-19T10:08:13.036Z,21.61
2023-05-19T10:10:47.897Z,21.73
2023-05-19T10:13:21.710Z,21.42
2023-05-19T10:15:59.691Z,21.10
2023-05-19T10:18:34.381Z,20.92
2023-05-19T10:21:10.308Z,20.73
2023-05-19T10:23:43.556Z,21.10
2023-05-19T10:26:17.019Z,21.25
2023-05-19T10:28:49.595Z,21.19
2023-05-19T10:31:26.840Z,21.79
2023-05-19T10:34:26.218Z,22.24
2023-05-19T10:37:13.353Z,22.69
2023-05-19T10:39:49.247Z,22.86
2023-05-19T10:42:38.589Z,23.07
2023-05-19T10:45:33.435Z,22.85
2023-05-19T10:48:09.881Z,22.42
2023-05-19T10:50:50.494Z,22.23
2023-05-19T10:53:23.438Z,22.03
2023-05-19T10:55:59.467Z,22.46
2023-05-19T10:58:42.111Z,22.23
2023-05-19T11:01:19.338Z,21.92
2023-05-19T11:03:55.457Z,21.41
2023-05-19T11:07:06.993Z,20.60
2023-05-19T11:09:51.000Z,20.35
2023-05-19T11:12:27.471Z,20.58
2023-05-19T11:15:03.489Z,20.85
2023-05-19T11:17:38.635Z,20.82
2023-05-19T11:20:26.861Z,21.11
2023-05-19T11:23:11.210Z,20.95
2023-05-19T11:25:51.956Z,20.64
2023-05-19T11:28:29.752Z,20.30
2023-05-19T11:31:03.070Z,20.05
2023-05-19T11:33:39.036Z,20.39
2023-05-19T11:36:17.229Z,20.26
2023-05-19T11:38:52.030Z,20.33
2023-05-19T11:41:29.358Z,20.17
2023-05-19T11:44:07.322Z,20.00
2023-05-19T11:46:42.824Z,20.07
2023-05-19T11:49:20.960Z,20.01
2023-05-19T11:52:01.136Z,19.90
2023-05-19T11:54:43.186Z,19.85
2023-05-19T11:57:18.990Z,20.07
2023-05-19T11:59:57.248Z,19.90
2023-05-19T12:02:32.173Z,19.78
2023-05-19T12:05:04.755Z,20.04
2023-05-19T12:07:42.251Z,20.04
2023-05-19T12:10:16.149Z,19.86
2023-05-19T12:12:54.512Z,19.79
2023-05-19T12:15:29.576Z,19.70
2023-05-19T12:18:02.834Z,19.78
2023-05-19T12:20:39.430Z,19.79
2023-05-19T12:23:17.079Z,19.91
2023-05-19T12:25:52.490Z,20.09
2023-05-19T12:28:31.307Z,20.09
2023-05-19T12:31:44.078Z,19.62
2023-05-19T12:34:20.274Z,19.53
2023-05-19T12:37:00.959Z,19.54
2023-05-19T12:39:41.916Z,19.61
2023-05-19T12:42:21.838Z,19.43
2023-05-19T12:44:55.389Z,19.25
2023-05-19T12:47:36.391Z,19.17
2023-05-19T12:50:11.300Z,19.33
2023-05-19T12:53:09.709Z,19.22
2023-05-19T12:58:53.771Z,19.25
2023-05-19T13:01:42.354Z,19.16
2023-05-19T13:07:33.215Z,19.38
2023-05-19T13:10:20.130Z,19.43
2023-05-19T13:22:11.735Z,19.16
2023-05-19T13:25:02.715Z,19.04
2023-05-19T13:27:41.926Z,19.12
2023-05-19T13:34:02.061Z,19.45
2023-05-19T13:39:52.046Z,19.38
2023-05-19T13:58:25.082Z,19.21
2023-05-19T14:04:42.467Z,19.07
2023-05-19T14:10:36.533Z,19.09
2023-05-19T14:16:05.165Z,18.86
2023-05-19T14:18:41.997Z,18.75
2023-05-19T14:21:29.955Z,18.62
2023-05-19T14:24:07.074Z,18.52
2023-05-19T14:26:48.450Z,18.64
2023-05-19T14:29:28.586Z,18.56
2023-05-19T14:32:03.793Z,18.65
2023-05-19T14:34:45.360Z,18.62
2023-05-19T14:37:19.730Z,18.74
2023-05-19T14:40:07.234Z,18.84
2023-05-19T15:21:24.720Z,18.01
2023-05-19T15:24:04.306Z,17.87
2023-05-19T15:26:46.654Z,17.92
2023-05-19T15:29:23.277Z,17.92
2023-05-19T15:32:00.752Z,17.95
2023-05-19T15:34:44.687Z,17.80
2023-05-19T15:37:30.996Z,17.57
2023-05-19T15:40:13.401Z,17.66
2023-05-19T15:42:45.392Z,17.62
2023-05-19T15:45:24.251Z,17.81
2023-05-19T15:52:20.677Z,17.83
2023-05-19T15:54:59.884Z,17.95
2023-05-19T15:57:32.754Z,17.98
2023-05-19T16:00:29.278Z,17.92
2023-05-19T16:18:22.095Z,17.67
2023-05-19T16:23:53.414Z,17.78
2023-05-19T16:26:31.518Z,17.63
2023-05-19T16:59:05.187Z,16.91
2023-05-19T17:01:39.867Z,16.83
2023-05-19T17:04:12.623Z,16.75
2023-05-19T17:06:46.531Z,16.70
2023-05-19T17:09:25.722Z,16.71
2023-05-19T17:11:57.871Z,16.69
2023-05-19T17:14:32.750Z,16.72
2023-05-19T17:17:04.821Z,16.73
2023-05-19T17:19:55.507Z,16.54
2023-05-19T17:22:30.118Z,16.58
2023-05-19T17:25:02.735Z,16.54
2023-05-19T17:27:35.931Z,16.58
2023-05-19T17:30:16.749Z,16.60
2023-05-19T17:32:51.884Z,16.62
2023-05-19T17:35:29.175Z,16.63
2023-05-19T17:38:01.496Z,16.53
2023-05-19T17:40:34.023Z,16.63
2023-05-19T17:43:06.483Z,16.69
2023-05-19T17:45:41.847Z,16.73
2023-05-19T17:48:14.660Z,16.77
2023-05-19T17:50:49.669Z,16.87
2023-05-19T17:53:24.170Z,16.90
2023-05-19T17:56:01.309Z,16.76
2023-05-19T17:58:34.078Z,16.77
2023-05-19T18:01:09.811Z,16.78
2023-05-19T18:03:43.921Z,16.63
2023-05-19T18:06:16.707Z,16.58
2023-05-19T18:08:51.844Z,16.58
2023-05-19T18:11:25.031Z,16.42
2023-05-19T18:13:57.229Z,16.34
2023-05-19T18:16:34.768Z,16.39
2023-05-19T18:19:07.286Z,16.34
2023-05-19T18:21:40.230Z,16.27
2023-05-19T18:24:22.736Z,16.30
2023-05-19T18:26:55.456Z,16.19
2023-05-19T18:29:37.869Z,16.15
2023-05-19T18:32:14.806Z,16.15
2023-05-19T18:34:47.509Z,16.07
2023-05-19T18:37:21.295Z,16.00
2023-05-19T18:39:53.120Z,15.90
2023-05-19T18:42:25.691Z,15.92
2023-05-19T18:44:58.588Z,15.84
2023-05-19T18:47:34.595Z,15.86
2023-05-19T18:50:10.231Z,15.84
2023-05-19T18:52:47.280Z,15.80
2023-05-19T18:55:21.036Z,15.67
2023-05-19T18:57:54.650Z,15.57
2023-05-19T19:00:28.390Z,15.50
2023-05-19T19:03:05.029Z,15.40
2023-05-19T19:05:37.491Z,15.39
2023-05-19T19:08:10.995Z,15.35
2023-05-19T19:10:42.930Z,15.40
2023-05-19T19:13:16.601Z,15.32
2023-05-19T19:15:49.220Z,15.31
2023-05-19T19:18:27.416Z,15.29
2023-05-19T19:38:43.044Z,14.91
2023-05-19T19:48:04.270Z,14.81
2023-05-19T19:50:38.470Z,14.78
2023-05-19T19:56:21.549Z,14.75
2023-05-19T20:09:09.429Z,14.59
2023-05-19T20:11:43.162Z,14.59
2023-05-19T20:14:20.287Z,14.59
2023-05-19T20:17:34.135Z,14.50
2023-05-19T20:23:41.601Z,14.51
2023-05-19T20:29:30.196Z,14.46
2023-05-19T20:34:59.193Z,14.42
2023-05-19T20:37:32.998Z,14.42
2023-05-19T20:40:13.599Z,14.36
2023-05-19T20:42:48.051Z,14.38
2023-05-19T20:45:22.316Z,14.38
2023-05-19T20:48:01.043Z,14.40
2023-05-19T20:50:35.203Z,14.35
2023-05-19T20:53:13.520Z,14.36
2023-05-19T20:55:55.097Z,14.32
2023-05-19T20:58:31.327Z,14.28
2023-05-19T21:01:04.316Z,14.23
2023-05-19T21:03:37.388Z,14.21
2023-05-19T21:08:57.236Z,14.10
2023-05-19T21:11:33.679Z,14.04
2023-05-19T21:14:10.793Z,14.06
2023-05-19T21:16:43.635Z,13.98
2023-05-19T21:22:05.173Z,14.02
2023-05-19T21:27:43.093Z,13.90
2023-05-19T21:30:24.852Z,13.89
2023-05-19T21:32:57.654Z,13.82
2023-05-19T21:35:31.437Z,13.82
2023-05-19T21:38:22.044Z,13.80
2023-05-19T21:40:58.126Z,13.78
2023-05-19T21:46:38.779Z,13.69
2023-05-19T21:55:06.248Z,13.53
2023-05-19T21:57:40.000Z,13.54
2023-05-19T22:00:17.239Z,13.49
2023-05-19T22:05:57.219Z,13.44
2023-05-19T22:08:43.081Z,13.41
2023-05-19T22:11:22.332Z,13.45
2023-05-19T22:14:08.121Z,13.39
2023-05-19T22:16:51.138Z,13.39
2023-05-19T22:19:32.043Z,13.39
2023-05-19T22:22:13.841Z,13.32
2023-05-19T22:27:45.020Z,13.23
2023-05-19T22:30:24.881Z,13.28
2023-05-19T22:33:23.234Z,13.28
2023-05-19T22:35:58.883Z,13.17
2023-05-19T22:41:42.917Z,13.19
2023-05-19T22:44:22.010Z,13.12
2023-05-19T22:47:06.745Z,13.08
2023-05-19T22:50:04.735Z,12.96
2023-05-19T22:52:40.409Z,12.99
2023-05-19T22:55:25.833Z,12.90
2023-05-19T22:58:02.029Z,12.93
2023-05-19T23:00:37.173Z,12.90
2023-05-19T23:06:13.570Z,12.88
2023-05-19T23:09:01.056Z,12.85
2023-05-19T23:11:38.366Z,12.79
2023-05-19T23:17:19.295Z,12.70
2023-05-19T23:19:54.186Z,12.72
2023-05-19T23:30:02.022Z,12.55
2023-05-19T23:32:35.987Z,12.54
2023-05-19T23:35:15.474Z,12.52
2023-05-19T23:37:49.448Z,12.51
2023-05-19T23:57:25.312Z,12.32
